Terminal Aerodrome Forecast
Issued by NWS

Home | Current Version | Previous Version | Text Only | Print | Product List | Glossary On
Versions: 1 2 3 4 5 6 7 8 9 10 11 12 13 14 15 16 17 18
792
FTAK31 PAJN 201927 AAA
TAFAWG
TAF AMD
PAWG 201927Z 2019/2118 30005KT P6SM BKN010
     FM202000 30008KT P6SM FEW010
     FM210600 VRB03KT 4SM BR SKC
      AMD LTD TO CLD VIS AND WIND 2106/2115=

USA.gov is the U.S. government's official web portal to all federal, state and local government web resources and services.